Time;durP1;ratioP1;P1;durP2;ratioP2;P2;SDS_P1;SDS_P2;PMS_P1;PMS_P2;Temp;Humidity;BMP_temperature;BMP_pressure;BME280_temperature;BME280_humidity;BME280_pressure;Samples;Min_cycle;Max_cycle;Signal;HPM_P1;HPM_P2
2022/11/08 00:02:33;;;;;;;4.53;2.03;;;11.90;86.70;;;;;;5072325;28;20054;-48
2022/11/08 00:15:58;;;;;;;10.70;2.85;;;11.70;87.00;;;;;;5073058;28;20035;-49
2022/11/08 00:18:24;;;;;;;9.30;3.40;;;11.60;87.20;;;;;;5073600;28;20024;-49
2022/11/08 00:20:50;;;;;;;7.70;3.33;;;11.50;87.70;;;;;;5072999;28;20483;-52
2022/11/08 00:23:15;;;;;;;4.25;1.98;;;11.50;87.80;;;;;;5073181;28;20108;-49
2022/11/08 00:25:41;;;;;;;9.15;2.20;;;11.60;87.80;;;;;;5073337;28;20032;-49
2022/11/08 00:28:06;;;;;;;6.07;1.85;;;11.60;87.70;;;;;;5073295;28;20028;-49
2022/11/08 00:30:32;;;;;;;15.73;2.40;;;11.50;87.70;;;;;;5074451;28;20423;-52
2022/11/08 00:32:58;;;;;;;6.97;2.60;;;11.60;88.00;;;;;;5077393;28;20028;-50
2022/11/08 00:35:23;;;;;;;5.97;2.50;;;11.50;87.60;;;;;;5076996;28;20025;-50
2022/11/08 00:37:49;;;;;;;9.23;2.00;;;11.50;87.90;;;;;;5076104;28;20031;-49
2022/11/08 00:40:15;;;;;;;10.55;2.03;;;11.60;87.80;;;;;;5077718;28;20441;-54
2022/11/08 00:42:40;;;;;;;8.80;3.47;;;11.70;87.70;;;;;;5076892;28;20036;-49
2022/11/08 00:45:06;;;;;;;9.48;2.22;;;11.60;87.70;;;;;;5077140;28;20029;-48
2022/11/08 00:47:32;;;;;;;9.48;2.85;;;11.50;87.60;;;;;;5076662;28;20407;-48
2022/11/08 00:49:58;;;;;;;7.93;2.33;;;11.40;87.80;;;;;;5075374;28;20054;-48
2022/11/08 00:52:23;;;;;;;5.18;2.00;;;11.40;88.00;;;;;;5075371;28;20077;-48
2022/11/08 00:54:49;;;;;;;5.80;2.70;;;11.50;88.10;;;;;;5076659;28;20025;-49
2022/11/08 00:57:15;;;;;;;7.95;2.70;;;11.50;88.10;;;;;;5076539;28;20036;-50
2022/11/08 00:59:40;;;;;;;10.93;2.35;;;11.70;88.10;;;;;;5076758;28;20020;-48
2022/11/08 01:02:06;;;;;;;12.43;2.65;;;11.80;87.80;;;;;;5076424;28;20031;-49
2022/11/08 01:04:31;;;;;;;9.35;2.30;;;12.00;87.10;;;;;;5076859;28;20064;-48
2022/11/08 01:06:57;;;;;;;10.63;2.33;;;12.00;86.80;;;;;;5076548;28;20384;-49
2022/11/08 01:09:23;;;;;;;4.03;1.60;;;11.90;86.40;;;;;;5076042;28;20041;-47
2022/11/08 01:11:48;;;;;;;7.47;2.63;;;12.00;86.50;;;;;;5076217;28;20090;-49
2022/11/08 01:14:14;;;;;;;5.68;3.60;;;12.10;86.50;;;;;;5076156;28;20044;-49
2022/11/08 01:16:40;;;;;;;7.38;2.85;;;12.30;85.80;;;;;;5076154;28;20032;-51
2022/11/08 01:19:06;;;;;;;14.40;3.90;;;12.30;85.40;;;;;;5076135;28;20029;-51
2022/11/08 01:21:32;;;;;;;10.68;3.10;;;12.30;85.30;;;;;;5076082;28;20078;-48
2022/11/08 01:23:57;;;;;;;7.32;2.00;;;12.20;85.50;;;;;;5075958;28;20032;-48
2022/11/08 01:26:26;;;;;;;9.15;2.97;;;12.20;85.50;;;;;;5076439;28;20029;-48
2022/11/08 01:28:52;;;;;;;8.00;2.42;;;12.30;85.10;;;;;;5076073;28;20473;-48
2022/11/08 01:31:21;;;;;;;5.20;1.88;;;12.30;85.00;;;;;;5075054;28;20401;-48
2022/11/08 01:33:48;;;;;;;6.25;2.55;;;12.40;84.80;;;;;;5075731;28;20052;-48
2022/11/08 01:36:16;;;;;;;6.10;1.65;;;12.40;84.30;;;;;;5074350;28;20021;-48
2022/11/08 01:38:42;;;;;;;5.63;2.08;;;12.50;84.30;;;;;;5075578;28;20025;-49
2022/11/08 01:41:11;;;;;;;10.18;1.65;;;12.60;83.80;;;;;;5075594;28;20035;-48
2022/11/08 01:43:42;;;;;;;10.75;1.95;;;12.60;83.30;;;;;;5075674;28;20024;-48
2022/11/08 01:46:25;;;;;;;9.77;1.80;;;12.70;83.40;;;;;;5075971;28;20028;-49
2022/11/08 01:49:18;;;;;;;9.13;1.98;;;12.80;82.90;;;;;;5075606;28;20033;-49
2022/11/08 01:51:47;;;;;;;10.13;4.43;;;12.80;82.60;;;;;;5059719;28;20059;-48
2022/11/08 01:54:18;;;;;;;7.20;1.88;;;12.80;82.50;;;;;;5075592;28;20100;-49
2022/11/08 01:56:44;;;;;;;12.85;2.63;;;12.80;82.20;;;;;;5075501;28;20070;-49
2022/11/08 01:59:11;;;;;;;4.35;1.65;;;12.80;82.50;;;;;;5074110;28;20036;-50
2022/11/08 02:01:37;;;;;;;13.73;2.08;;;12.80;82.60;;;;;;5075421;28;20028;-49
2022/11/08 02:04:04;;;;;;;4.20;1.52;;;12.80;82.50;;;;;;5075126;28;20531;-49
2022/11/08 02:06:32;;;;;;;8.07;1.75;;;12.80;82.10;;;;;;5073775;28;20029;-48
2022/11/08 02:09:02;;;;;;;16.15;2.20;;;12.90;82.10;;;;;;5075075;28;20068;-48
2022/11/08 02:11:28;;;;;;;7.28;2.22;;;12.90;81.70;;;;;;5075039;28;20107;-48
2022/11/08 02:13:55;;;;;;;11.63;1.98;;;12.90;81.80;;;;;;5075012;28;20121;-48
2022/11/08 02:16:20;;;;;;;7.10;1.52;;;12.90;81.70;;;;;;5075024;28;20029;-49
2022/11/08 02:18:47;;;;;;;4.32;1.55;;;12.80;81.80;;;;;;5073577;28;20488;-49
2022/11/08 02:21:18;;;;;;;6.43;1.65;;;12.80;81.90;;;;;;5075374;28;20439;-49
2022/11/08 02:23:45;;;;;;;7.95;2.05;;;12.80;81.70;;;;;;5074988;28;20024;-51
2022/11/08 02:26:12;;;;;;;6.40;1.65;;;12.60;82.30;;;;;;5075072;28;20020;-49
2022/11/08 02:28:39;;;;;;;9.10;3.28;;;12.50;82.60;;;;;;5074832;28;20025;-50
2022/11/08 02:31:11;;;;;;;6.97;1.58;;;12.50;83.00;;;;;;5074580;28;20021;-48
2022/11/08 02:33:37;;;;;;;8.00;2.00;;;12.40;83.20;;;;;;5075078;28;20017;-49
2022/11/08 02:36:03;;;;;;;10.55;1.80;;;12.30;82.70;;;;;;5074752;28;20381;-48
2022/11/08 02:38:30;;;;;;;7.85;1.55;;;12.30;83.30;;;;;;5074645;28;20020;-48
2022/11/08 02:40:56;;;;;;;5.25;1.75;;;12.30;83.80;;;;;;5074547;28;20048;-48
2022/11/08 02:43:23;;;;;;;8.27;1.70;;;12.20;83.50;;;;;;5074649;28;20575;-49
2022/11/08 02:45:50;;;;;;;6.05;2.65;;;12.00;83.70;;;;;;5074568;28;20024;-48
2022/11/08 02:48:17;;;;;;;8.00;2.20;;;12.00;84.30;;;;;;5074308;28;20024;-51
2022/11/08 02:50:43;;;;;;;7.03;1.70;;;12.00;84.40;;;;;;5073178;28;20369;-50
2022/11/08 02:53:08;;;;;;;11.98;2.95;;;12.00;84.30;;;;;;5073582;28;20020;-48
2022/11/08 02:55:35;;;;;;;4.30;1.15;;;12.00;84.50;;;;;;5073209;28;20490;-50
2022/11/08 02:58:00;;;;;;;9.50;1.60;;;11.90;84.30;;;;;;5074270;28;20531;-48
2022/11/08 03:00:26;;;;;;;5.53;1.48;;;11.90;84.40;;;;;;5074727;28;20017;-48
2022/11/08 03:02:56;;;;;;;8.98;1.85;;;11.90;84.30;;;;;;5074286;28;20025;-48
2022/11/08 03:05:23;;;;;;;2.80;1.33;;;11.90;84.20;;;;;;5074292;28;20064;-49
2022/11/08 03:07:48;;;;;;;2.33;1.38;;;11.80;84.30;;;;;;5073991;28;20111;-48
2022/11/08 03:10:14;;;;;;;6.03;2.15;;;11.80;84.60;;;;;;5073928;28;20107;-48
2022/11/08 03:12:41;;;;;;;9.40;1.48;;;11.80;84.50;;;;;;5072747;28;20078;-50
2022/11/08 03:15:09;;;;;;;6.18;1.63;;;11.80;84.40;;;;;;5074073;28;20021;-51
2022/11/08 03:17:34;;;;;;;5.57;1.90;;;11.80;84.20;;;;;;5073419;28;20056;-49
2022/11/08 03:20:00;;;;;;;1.65;1.20;;;11.80;83.90;;;;;;5074157;28;20063;-48
2022/11/08 03:22:26;;;;;;;16.27;1.95;;;11.80;83.90;;;;;;5074080;28;20099;-48
2022/11/08 03:24:51;;;;;;;6.30;2.03;;;11.80;84.10;;;;;;5073954;28;20028;-49
2022/11/08 03:27:18;;;;;;;4.63;1.70;;;11.90;83.50;;;;;;5073702;28;20020;-49
2022/11/08 03:29:45;;;;;;;10.88;1.52;;;11.80;83.50;;;;;;5073825;28;20112;-49
2022/11/08 03:32:11;;;;;;;5.90;1.98;;;11.70;83.80;;;;;;5073650;28;20028;-49
2022/11/08 03:34:37;;;;;;;9.65;1.55;;;11.80;83.70;;;;;;5074078;28;20032;-49
2022/11/08 03:37:07;;;;;;;6.65;1.65;;;11.60;83.70;;;;;;5073576;28;20025;-48
2022/11/08 03:39:33;;;;;;;5.75;1.80;;;11.70;84.20;;;;;;5073923;28;20029;-50
2022/11/08 03:42:01;;;;;;;3.83;1.48;;;11.60;83.70;;;;;;5073581;28;20040;-49
2022/11/08 03:44:28;;;;;;;3.20;1.52;;;11.70;83.80;;;;;;5073646;28;20526;-48
2022/11/08 03:46:53;;;;;;;5.50;1.92;;;11.80;83.60;;;;;;5073622;28;20028;-48
2022/11/08 03:49:19;;;;;;;6.30;2.40;;;11.90;82.80;;;;;;5072680;28;20031;-49
2022/11/08 03:51:45;;;;;;;5.15;1.63;;;11.90;82.80;;;;;;5073306;28;20143;-50
2022/11/08 03:54:10;;;;;;;5.32;1.73;;;11.90;82.70;;;;;;5073390;28;20017;-49
2022/11/08 03:56:36;;;;;;;9.45;3.20;;;11.90;82.60;;;;;;5071923;28;20021;-49
2022/11/08 03:59:02;;;;;;;6.43;1.67;;;11.90;82.90;;;;;;5073270;28;20418;-50
2022/11/08 04:01:27;;;;;;;3.50;1.05;;;11.90;82.90;;;;;;5073204;28;20549;-48
2022/11/08 04:03:53;;;;;;;6.95;1.80;;;11.80;82.80;;;;;;5071963;28;20059;-53
2022/11/08 04:06:19;;;;;;;4.65;1.27;;;11.80;83.20;;;;;;5073189;28;20020;-48
2022/11/08 04:08:44;;;;;;;4.13;1.42;;;11.80;83.10;;;;;;5073033;28;20072;-48
2022/11/08 04:16:38;;;;;;;3.70;1.40;;;11.90;83.00;;;;;;5073136;28;20442;-49
2022/11/08 04:21:51;;;;;;;6.47;1.63;;;11.80;82.90;;;;;;5073680;28;20122;-48
2022/11/08 04:24:16;;;;;;;5.07;1.40;;;11.60;83.60;;;;;;5073464;28;20425;-49
2022/11/08 04:26:42;;;;;;;2.28;1.33;;;11.60;83.50;;;;;;5073311;28;20052;-49
2022/11/08 04:29:09;;;;;;;5.15;1.35;;;11.50;83.50;;;;;;5073048;28;20107;-48
2022/11/08 04:31:35;;;;;;;3.35;1.30;;;11.50;83.80;;;;;;5073430;28;20037;-48
2022/11/08 04:34:01;;;;;;;4.50;2.33;;;11.40;83.90;;;;;;5073080;28;20070;-48
2022/11/08 04:36:26;;;;;;;5.25;1.25;;;11.40;84.40;;;;;;5073026;28;20024;-52
2022/11/08 04:38:52;;;;;;;7.68;1.95;;;11.60;84.20;;;;;;5071645;28;20028;-48
2022/11/08 04:41:21;;;;;;;6.28;2.08;;;11.60;83.70;;;;;;5073000;28;20024;-49
2022/11/08 04:43:47;;;;;;;5.43;1.75;;;11.70;83.70;;;;;;5073285;28;20070;-48
2022/11/08 04:46:18;;;;;;;2.75;1.60;;;11.80;83.30;;;;;;5073220;28;20036;-48
2022/11/08 04:48:45;;;;;;;9.00;2.15;;;11.80;83.20;;;;;;5073096;28;20035;-48
2022/11/08 04:51:14;;;;;;;2.97;1.30;;;11.70;83.50;;;;;;5071713;28;20020;-48
2022/11/08 04:53:40;;;;;;;3.90;1.25;;;11.60;83.60;;;;;;5072902;28;20024;-48
2022/11/08 04:56:09;;;;;;;4.95;1.38;;;11.70;83.90;;;;;;5072810;28;20028;-52
2022/11/08 04:58:36;;;;;;;3.97;1.85;;;11.70;83.70;;;;;;5072751;28;20024;-48
2022/11/08 05:01:03;;;;;;;2.70;1.30;;;11.60;83.80;;;;;;5072823;28;20025;-48
2022/11/08 05:03:30;;;;;;;5.53;1.42;;;11.60;84.10;;;;;;5071586;28;20029;-49
2022/11/08 05:05:58;;;;;;;9.18;3.40;;;11.50;84.20;;;;;;5073062;28;20117;-49
2022/11/08 05:08:24;;;;;;;5.97;1.80;;;11.60;84.40;;;;;;5072477;28;20091;-51
2022/11/08 05:10:50;;;;;;;4.05;1.67;;;11.50;84.40;;;;;;5073087;28;20472;-50
2022/11/08 05:13:16;;;;;;;8.10;1.90;;;11.50;84.40;;;;;;5072931;28;20025;-48
2022/11/08 05:15:41;;;;;;;5.43;1.63;;;11.50;84.40;;;;;;5072692;28;20090;-48
2022/11/08 05:18:07;;;;;;;3.28;1.40;;;11.60;84.20;;;;;;5076409;28;20020;-49
2022/11/08 05:23:22;;;;;;;3.38;1.23;;;11.70;83.60;;;;;;5077019;28;20400;-49
2022/11/08 05:25:48;;;;;;;5.65;1.67;;;11.70;83.50;;;;;;5077465;28;20032;-49
2022/11/08 05:28:14;;;;;;;3.38;1.45;;;11.70;83.40;;;;;;5077043;28;20040;-48
2022/11/08 05:30:40;;;;;;;4.35;1.70;;;11.60;83.60;;;;;;5077326;28;20029;-49
2022/11/08 05:33:06;;;;;;;5.13;1.58;;;11.50;84.00;;;;;;5076723;28;20025;-49
2022/11/08 05:35:35;;;;;;;2.65;1.35;;;11.50;84.10;;;;;;5075908;28;20028;-49
2022/11/08 05:38:01;;;;;;;1.52;1.35;;;11.40;84.10;;;;;;5077889;28;20033;-49
2022/11/08 05:40:26;;;;;;;8.45;2.45;;;11.40;84.20;;;;;;5077814;28;20057;-49
2022/11/08 05:42:53;;;;;;;4.72;1.30;;;11.40;84.20;;;;;;5077637;28;20024;-48
2022/11/08 05:45:19;;;;;;;3.25;1.55;;;11.40;84.10;;;;;;5077305;28;20079;-52
2022/11/08 05:47:45;;;;;;;5.95;1.73;;;11.40;84.30;;;;;;5077034;28;20040;-49
2022/11/08 05:50:12;;;;;;;9.27;1.80;;;11.30;84.20;;;;;;5077310;28;20123;-53
2022/11/08 05:52:38;;;;;;;5.88;1.65;;;11.30;84.30;;;;;;5075921;28;20052;-49
2022/11/08 05:55:04;;;;;;;5.32;2.05;;;11.20;84.50;;;;;;5076596;28;20050;-52
2022/11/08 05:57:30;;;;;;;8.40;1.75;;;11.20;84.70;;;;;;5076164;28;20423;-49
2022/11/08 05:59:55;;;;;;;5.07;1.75;;;11.20;84.70;;;;;;5076172;28;20028;-49
2022/11/08 06:02:21;;;;;;;4.05;1.73;;;11.20;84.40;;;;;;5076468;28;20392;-50
2022/11/08 06:04:48;;;;;;;6.07;1.60;;;11.20;84.50;;;;;;5075634;28;20024;-48
2022/11/08 06:07:13;;;;;;;4.95;2.10;;;11.30;84.50;;;;;;5075449;28;20481;-49
2022/11/08 06:09:39;;;;;;;2.45;1.88;;;11.30;84.20;;;;;;5075072;28;20133;-54
2022/11/08 06:12:05;;;;;;;3.10;1.80;;;11.30;84.00;;;;;;5075210;28;20158;-49
2022/11/08 06:14:31;;;;;;;3.03;2.08;;;11.30;83.90;;;;;;5073868;28;20028;-51
2022/11/08 06:16:56;;;;;;;4.63;2.05;;;11.30;83.90;;;;;;5074930;28;20103;-50
2022/11/08 16:07:28;;;;;;;3.38;1.77;;;15.50;66.60;;;;;;5091485;27;20423;-50
2022/11/08 16:09:53;;;;;;;6.10;1.95;;;15.50;66.90;;;;;;5090630;28;20054;-50
2022/11/08 16:12:19;;;;;;;4.57;1.67;;;15.50;66.90;;;;;;5090809;28;20025;-49
2022/11/08 16:14:44;;;;;;;6.32;2.25;;;15.50;67.00;;;;;;5090555;28;20024;-49
2022/11/08 16:17:13;;;;;;;3.17;1.73;;;15.50;67.30;;;;;;5090350;28;20476;-48
2022/11/08 16:19:39;;;;;;;5.43;2.35;;;15.60;66.80;;;;;;5090196;28;20032;-49
2022/11/08 16:22:06;;;;;;;3.28;1.98;;;15.50;67.20;;;;;;5088982;28;20081;-49
2022/11/08 16:24:32;;;;;;;4.22;1.20;;;15.50;67.30;;;;;;5090592;28;20519;-51
2022/11/08 16:27:00;;;;;;;4.00;1.92;;;15.50;67.30;;;;;;5090699;28;20165;-49
2022/11/08 16:29:28;;;;;;;4.63;1.83;;;15.30;69.00;;;;;;5090034;28;20024;-49
2022/11/08 16:31:54;;;;;;;1.60;1.10;;;15.30;69.30;;;;;;5090358;28;20021;-48
2022/11/08 16:34:20;;;;;;;4.70;1.77;;;15.30;69.20;;;;;;5090754;28;20430;-52
2022/11/08 16:36:47;;;;;;;3.97;2.20;;;15.20;69.50;;;;;;5090412;28;20035;-49
2022/11/08 16:39:20;;;;;;;5.40;1.77;;;15.20;69.70;;;;;;5088851;28;20017;-49
2022/11/08 16:41:46;;;;;;;3.33;1.48;;;15.20;69.10;;;;;;5090260;28;20098;-48
2022/11/08 16:44:12;;;;;;;15.68;3.80;;;15.30;69.10;;;;;;5088874;28;20028;-49
2022/11/08 16:46:38;;;;;;;6.32;3.17;;;15.30;69.10;;;;;;5090403;28;20020;-52
2022/11/08 16:49:05;;;;;;;2.25;1.65;;;15.30;68.90;;;;;;5090114;28;20047;-48
2022/11/08 16:51:31;;;;;;;2.50;2.17;;;15.30;68.60;;;;;;5090161;28;20476;-50
2022/11/08 16:53:57;;;;;;;7.93;1.75;;;15.30;68.50;;;;;;5090133;28;20108;-48
2022/11/08 16:56:22;;;;;;;5.03;2.65;;;15.40;68.30;;;;;;5089960;28;20028;-51
2022/11/08 16:58:48;;;;;;;6.47;1.85;;;15.50;67.90;;;;;;5088478;28;20066;-49
2022/11/08 17:01:19;;;;;;;6.72;3.33;;;15.50;68.70;;;;;;5089966;28;20043;-50
2022/11/08 17:03:45;;;;;;;4.03;1.30;;;15.30;69.00;;;;;;5089891;28;20111;-48
2022/11/08 17:06:16;;;;;;;3.28;1.77;;;15.30;69.20;;;;;;5089400;28;20519;-48
2022/11/08 17:08:43;;;;;;;3.63;1.63;;;15.40;69.00;;;;;;5089598;28;20027;-49
2022/11/08 17:11:16;;;;;;;2.88;1.50;;;15.40;68.70;;;;;;5089770;28;20024;-49
2022/11/08 17:13:41;;;;;;;3.47;2.30;;;15.30;69.10;;;;;;5071601;28;20479;-50
2022/11/08 17:16:10;;;;;;;4.28;1.70;;;15.50;68.70;;;;;;5089540;28;20031;-48
2022/11/08 17:18:36;;;;;;;4.72;1.63;;;15.50;68.60;;;;;;5077532;28;20495;-47
2022/11/08 17:21:06;;;;;;;5.90;2.15;;;15.40;69.10;;;;;;5076116;28;20074;-51
2022/11/08 17:23:31;;;;;;;4.97;2.13;;;15.40;69.00;;;;;;5075024;28;20031;-51
2022/11/08 17:26:01;;;;;;;11.60;2.15;;;15.50;69.00;;;;;;5075957;28;20404;-49
2022/11/08 17:28:27;;;;;;;5.30;1.75;;;15.40;68.70;;;;;;5075780;28;20017;-49
2022/11/08 17:30:52;;;;;;;6.97;2.33;;;15.50;68.50;;;;;;5074575;28;20035;-48
2022/11/08 17:33:18;;;;;;;5.32;1.70;;;15.60;68.40;;;;;;5075788;28;20202;-49
2022/11/08 17:35:44;;;;;;;3.72;1.38;;;15.50;68.40;;;;;;5075366;28;20453;-48
2022/11/08 17:38:09;;;;;;;3.97;1.63;;;15.60;68.10;;;;;;5075581;28;20492;-48
2022/11/08 17:40:35;;;;;;;7.80;1.77;;;15.60;68.30;;;;;;5075363;28;20115;-48
2022/11/08 17:43:01;;;;;;;4.13;1.92;;;15.60;68.70;;;;;;5074743;28;20086;-51
2022/11/08 17:45:27;;;;;;;5.60;2.40;;;15.70;68.70;;;;;;5074152;28;20028;-48
2022/11/08 17:47:52;;;;;;;5.32;1.70;;;15.50;69.40;;;;;;5074134;28;20047;-49
2022/11/08 17:50:18;;;;;;;5.07;1.73;;;15.50;69.90;;;;;;5074659;28;20025;-49
2022/11/08 17:52:44;;;;;;;6.28;2.90;;;15.40;70.20;;;;;;5075493;28;20020;-48
2022/11/08 17:55:10;;;;;;;5.93;2.20;;;15.30;71.10;;;;;;5075616;28;20051;-50
2022/11/08 17:57:35;;;;;;;3.20;2.00;;;15.30;71.00;;;;;;5075164;28;20016;-48
2022/11/08 18:00:02;;;;;;;3.45;1.70;;;15.30;71.20;;;;;;5075107;28;20031;-50
2022/11/08 18:02:28;;;;;;;2.53;1.40;;;15.20;71.20;;;;;;5075473;28;20044;-48
2022/11/08 18:04:55;;;;;;;2.90;1.60;;;15.20;71.40;;;;;;5075189;28;20462;-51
2022/11/08 18:07:21;;;;;;;2.72;1.60;;;15.30;71.30;;;;;;5074785;28;20110;-48
2022/11/08 18:09:47;;;;;;;2.50;1.70;;;15.20;71.40;;;;;;5075151;28;20017;-49
2022/11/08 18:12:13;;;;;;;3.97;1.80;;;15.30;71.20;;;;;;5075027;28;20016;-49
2022/11/08 18:14:38;;;;;;;5.47;1.98;;;15.20;71.50;;;;;;5073479;28;20024;-50
2022/11/08 18:17:04;;;;;;;3.47;1.48;;;15.10;71.50;;;;;;5074789;28;20026;-52
2022/11/08 18:19:29;;;;;;;3.78;1.88;;;15.20;71.30;;;;;;5074684;28;20069;-48
2022/11/08 18:21:55;;;;;;;4.07;1.83;;;15.20;71.40;;;;;;5073366;28;20059;-48
2022/11/08 18:24:21;;;;;;;3.10;1.70;;;15.20;71.30;;;;;;5074748;28;20020;-49
2022/11/08 18:26:46;;;;;;;4.20;2.25;;;15.30;70.80;;;;;;5075114;28;20342;-50
2022/11/08 18:29:12;;;;;;;4.88;1.95;;;15.30;70.80;;;;;;5074052;28;20016;-49
2022/11/08 18:31:38;;;;;;;4.88;1.83;;;15.30;70.80;;;;;;5072882;28;20059;-48
2022/11/08 18:34:04;;;;;;;5.30;1.92;;;15.30;70.70;;;;;;5075097;28;20043;-49
2022/11/08 18:36:30;;;;;;;4.15;2.08;;;15.30;70.70;;;;;;5074910;28;20510;-51
2022/11/08 18:38:58;;;;;;;7.50;2.92;;;15.40;70.10;;;;;;5075148;28;20353;-52
2022/11/08 18:41:27;;;;;;;3.55;1.55;;;15.40;70.20;;;;;;5075179;28;20024;-47
2022/11/08 18:43:54;;;;;;;9.88;2.75;;;15.30;70.20;;;;;;5075519;28;20020;-49
2022/11/08 18:46:24;;;;;;;2.08;1.65;;;15.40;70.00;;;;;;5075023;28;20132;-48
2022/11/08 18:48:51;;;;;;;5.85;3.40;;;15.50;69.70;;;;;;5074645;28;20431;-49
2022/11/08 18:51:19;;;;;;;2.53;1.63;;;15.60;69.40;;;;;;5074305;28;20033;-52
2022/11/08 18:53:44;;;;;;;5.03;2.10;;;15.60;69.20;;;;;;5074443;28;20028;-48
2022/11/08 18:56:11;;;;;;;4.18;1.60;;;15.60;69.30;;;;;;5074181;28;20024;-48
2022/11/08 18:58:37;;;;;;;4.15;1.60;;;15.50;69.40;;;;;;5074335;28;20032;-48
2022/11/08 19:01:04;;;;;;;2.63;0.98;;;15.70;69.10;;;;;;5074332;28;20025;-49
2022/11/08 19:03:30;;;;;;;2.00;1.60;;;15.70;69.00;;;;;;5072531;28;20032;-48
2022/11/08 19:05:56;;;;;;;5.57;1.50;;;15.60;69.40;;;;;;5073664;28;20036;-49
2022/11/08 19:08:25;;;;;;;2.50;1.50;;;15.70;69.00;;;;;;5074828;28;20024;-50
2022/11/08 19:10:53;;;;;;;3.15;2.38;;;15.60;69.30;;;;;;5074027;28;20499;-49
2022/11/08 19:13:21;;;;;;;5.78;1.70;;;15.70;69.30;;;;;;5073765;28;20416;-48
2022/11/08 19:16:03;;;;;;;2.53;1.70;;;15.70;69.30;;;;;;5073761;28;20106;-47
2022/11/08 19:18:30;;;;;;;7.30;1.85;;;15.70;69.40;;;;;;5073685;28;20059;-48
2022/11/08 19:21:02;;;;;;;2.33;1.40;;;15.70;69.20;;;;;;5073718;28;20032;-51
2022/11/08 19:23:28;;;;;;;4.40;1.65;;;15.50;69.90;;;;;;5073815;28;20074;-48
2022/11/08 19:25:59;;;;;;;2.67;1.42;;;15.60;69.50;;;;;;5073560;28;20071;-48
2022/11/08 19:28:26;;;;;;;3.58;1.50;;;15.70;69.30;;;;;;5072321;28;20465;-49
2022/11/08 19:30:52;;;;;;;2.17;1.20;;;15.60;69.60;;;;;;5072019;28;20043;-49
2022/11/08 19:33:21;;;;;;;6.30;1.90;;;15.60;70.00;;;;;;5073858;28;20035;-49
2022/11/08 19:35:46;;;;;;;4.25;1.70;;;15.70;69.70;;;;;;5073618;28;20033;-50
2022/11/08 19:38:12;;;;;;;5.75;1.73;;;15.60;70.00;;;;;;5073426;28;20522;-50
2022/11/08 19:40:39;;;;;;;5.28;1.85;;;15.50;69.90;;;;;;5072887;28;20050;-49
2022/11/08 19:43:04;;;;;;;5.55;1.98;;;15.50;70.10;;;;;;5073378;28;20024;-49
2022/11/08 19:45:30;;;;;;;3.25;1.83;;;15.50;70.30;;;;;;5073091;28;20029;-49
2022/11/08 19:47:56;;;;;;;3.08;1.55;;;15.60;70.00;;;;;;5073271;28;20052;-49
2022/11/08 19:50:21;;;;;;;3.72;1.30;;;15.80;69.30;;;;;;5073315;28;20030;-48
2022/11/08 19:52:48;;;;;;;3.53;1.80;;;15.70;69.70;;;;;;5073387;28;20044;-50
2022/11/08 19:55:14;;;;;;;4.03;1.95;;;15.60;70.00;;;;;;5073075;28;20365;-49
2022/11/08 19:57:40;;;;;;;3.05;1.17;;;15.60;70.00;;;;;;5073178;28;20104;-49
2022/11/08 20:00:09;;;;;;;6.45;1.90;;;15.70;69.80;;;;;;5073163;28;20020;-48
2022/11/08 20:02:35;;;;;;;5.00;1.20;;;15.60;70.00;;;;;;5072984;28;20350;-50
2022/11/08 20:05:00;;;;;;;3.20;1.85;;;15.60;70.20;;;;;;5072993;28;20031;-49
2022/11/08 20:07:26;;;;;;;4.03;1.60;;;15.50;70.40;;;;;;5073016;28;20032;-51
2022/11/08 20:09:52;;;;;;;4.22;1.25;;;15.70;70.10;;;;;;5071851;28;20476;-51
2022/11/08 20:12:18;;;;;;;2.42;1.67;;;15.60;70.40;;;;;;5073368;28;20024;-50
2022/11/08 20:14:44;;;;;;;4.90;1.80;;;15.50;70.90;;;;;;5073141;28;20415;-49
2022/11/08 20:17:09;;;;;;;3.40;1.80;;;15.70;70.50;;;;;;5073009;28;20115;-50
2022/11/08 20:19:35;;;;;;;4.15;1.85;;;15.70;70.20;;;;;;5073135;28;20028;-49
2022/11/08 20:22:04;;;;;;;3.08;1.60;;;15.70;70.40;;;;;;5073544;28;20528;-48
2022/11/08 20:24:30;;;;;;;3.25;1.35;;;15.70;70.60;;;;;;5073310;28;20434;-49
2022/11/08 20:26:55;;;;;;;4.75;1.77;;;15.60;71.00;;;;;;5072895;28;20108;-50
2022/11/08 20:29:21;;;;;;;2.38;1.58;;;15.60;70.80;;;;;;5073118;28;20099;-48
2022/11/08 20:31:50;;;;;;;7.78;2.10;;;15.50;71.50;;;;;;5072937;28;20027;-48
2022/11/08 20:34:16;;;;;;;1.98;1.63;;;15.50;71.20;;;;;;5074857;28;20029;-48
2022/11/08 20:36:42;;;;;;;3.97;1.80;;;15.50;71.50;;;;;;5071555;28;20361;-49
2022/11/08 20:39:13;;;;;;;2.08;1.40;;;15.50;71.50;;;;;;5072716;28;20031;-48
2022/11/08 20:41:39;;;;;;;4.55;1.42;;;15.50;71.60;;;;;;5073007;28;20075;-49
2022/11/08 20:44:07;;;;;;;2.58;1.33;;;15.40;72.00;;;;;;5073137;28;20040;-50
2022/11/08 20:46:33;;;;;;;3.92;1.77;;;15.60;71.50;;;;;;5072844;28;20041;-50
2022/11/08 20:49:00;;;;;;;4.13;1.42;;;15.70;71.10;;;;;;5072982;28;20024;-47
2022/11/08 20:51:26;;;;;;;4.72;1.67;;;15.60;71.40;;;;;;5071414;28;20029;-50
2022/11/08 20:53:52;;;;;;;2.25;1.50;;;15.60;71.60;;;;;;5076049;28;20520;-48
2022/11/08 20:56:20;;;;;;;1.45;1.33;;;15.60;71.30;;;;;;5077070;28;20021;-51
2022/11/08 20:58:48;;;;;;;11.55;1.70;;;15.60;71.50;;;;;;5075528;28;20032;-50
2022/11/08 21:01:17;;;;;;;3.72;1.67;;;15.80;71.20;;;;;;5076263;28;20055;-50
2022/11/08 21:03:46;;;;;;;4.03;1.42;;;15.70;71.10;;;;;;5076800;28;20444;-48
2022/11/08 21:06:14;;;;;;;1.52;1.35;;;15.70;71.40;;;;;;5075810;28;20044;-50
2022/11/08 21:08:40;;;;;;;1.77;1.27;;;15.80;71.30;;;;;;5076071;28;20024;-49
2022/11/08 21:11:08;;;;;;;6.18;2.30;;;15.80;71.00;;;;;;5076242;28;20086;-51
2022/11/08 21:13:36;;;;;;;4.38;1.40;;;15.80;71.10;;;;;;5076246;28;20415;-51
2022/11/08 21:16:04;;;;;;;2.95;1.50;;;15.80;71.10;;;;;;5074846;28;20028;-49
2022/11/08 21:18:30;;;;;;;3.65;2.15;;;15.80;71.30;;;;;;5076080;28;20036;-49
2022/11/08 21:21:10;;;;;;;8.38;2.47;;;15.70;71.40;;;;;;5076266;28;20039;-48
2022/11/08 21:23:37;;;;;;;3.65;1.63;;;15.70;71.40;;;;;;5075770;28;20028;-49
2022/11/08 21:26:05;;;;;;;3.13;1.67;;;15.60;71.60;;;;;;5076032;28;20035;-48
2022/11/08 21:28:31;;;;;;;2.03;1.40;;;15.70;71.70;;;;;;5075666;28;20052;-49
2022/11/08 21:30:57;;;;;;;3.22;2.40;;;15.70;71.80;;;;;;5075751;28;20465;-49
2022/11/08 21:33:23;;;;;;;1.73;1.45;;;15.70;71.60;;;;;;5075974;28;20032;-50
2022/11/08 21:35:54;;;;;;;4.18;1.67;;;15.70;71.60;;;;;;5076006;28;20027;-48
2022/11/08 21:38:20;;;;;;;2.10;1.50;;;15.70;71.80;;;;;;5075636;28;20033;-52
2022/11/08 21:40:47;;;;;;;4.47;1.40;;;15.60;72.10;;;;;;5075594;28;20032;-48
2022/11/08 21:43:14;;;;;;;2.25;1.63;;;15.70;72.00;;;;;;5075991;28;20025;-49
2022/11/08 21:45:40;;;;;;;2.55;1.85;;;15.70;72.10;;;;;;5074294;28;20028;-51
2022/11/08 21:48:07;;;;;;;5.75;1.60;;;15.50;72.50;;;;;;5075665;28;20361;-48
2022/11/08 21:50:34;;;;;;;6.00;1.55;;;15.30;73.30;;;;;;5075901;28;20025;-51
2022/11/08 21:53:03;;;;;;;4.55;1.85;;;15.50;73.20;;;;;;5076000;28;20040;-48
2022/11/08 21:55:30;;;;;;;4.07;2.10;;;15.60;72.80;;;;;;5058264;28;20543;-51
2022/11/08 21:57:56;;;;;;;4.10;1.40;;;15.60;72.70;;;;;;5058359;28;20050;-48
2022/11/08 22:00:22;;;;;;;2.78;1.30;;;15.50;72.90;;;;;;5075689;28;20017;-50
2022/11/08 22:02:48;;;;;;;2.83;1.08;;;15.40;73.60;;;;;;5075473;28;20113;-49
2022/11/08 22:05:13;;;;;;;5.60;1.73;;;15.40;73.60;;;;;;5075030;28;20051;-50
2022/11/08 22:07:39;;;;;;;2.60;1.70;;;15.40;73.50;;;;;;5075567;28;20032;-50
2022/11/08 22:10:06;;;;;;;2.95;1.50;;;15.40;73.30;;;;;;5074206;28;20108;-52
2022/11/08 22:12:32;;;;;;;3.42;1.33;;;15.30;73.90;;;;;;5075268;28;20025;-51
2022/11/08 22:14:58;;;;;;;2.47;1.40;;;15.20;74.30;;;;;;5075048;28;20506;-50
2022/11/08 22:17:24;;;;;;;4.50;1.42;;;15.30;74.10;;;;;;5075401;28;20062;-50
2022/11/08 22:19:49;;;;;;;7.03;1.90;;;15.20;74.40;;;;;;5075644;28;20119;-49
2022/11/08 22:22:15;;;;;;;9.73;1.90;;;15.30;74.20;;;;;;5075234;28;20053;-49
2022/11/08 22:24:41;;;;;;;4.28;1.73;;;15.10;74.50;;;;;;5075139;28;20105;-48
2022/11/08 22:27:07;;;;;;;3.50;1.48;;;15.10;74.80;;;;;;5075089;28;20480;-49
2022/11/08 22:29:32;;;;;;;5.55;1.50;;;15.10;74.60;;;;;;5073715;28;20017;-50
2022/11/08 22:31:58;;;;;;;2.92;1.60;;;15.10;74.70;;;;;;5075473;28;20028;-48
2022/11/08 22:34:24;;;;;;;5.45;1.83;;;15.10;74.70;;;;;;5075362;28;20058;-48
2022/11/08 22:36:52;;;;;;;4.07;1.38;;;15.10;74.80;;;;;;5075033;28;20357;-48
2022/11/08 22:39:19;;;;;;;3.72;2.20;;;15.20;74.80;;;;;;5073831;28;20029;-51
2022/11/08 22:41:47;;;;;;;3.45;1.90;;;15.20;74.60;;;;;;5073794;28;20021;-50
2022/11/08 22:44:13;;;;;;;5.82;1.52;;;15.20;74.60;;;;;;5074759;28;20035;-50
2022/11/08 22:46:43;;;;;;;3.25;2.05;;;15.20;74.60;;;;;;5075164;28;20036;-50
2022/11/08 22:49:10;;;;;;;2.22;1.50;;;15.30;74.40;;;;;;5075846;28;20027;-51
2022/11/08 22:51:36;;;;;;;5.25;3.78;;;15.30;74.30;;;;;;5073846;28;20055;-49
2022/11/08 22:54:01;;;;;;;2.30;1.55;;;15.30;74.40;;;;;;5075108;28;20024;-49